createdAt,value
2022-12-28T00:02:20.195Z,74.32
2022-12-28T00:04:49.255Z,74.26
2022-12-28T00:07:18.392Z,73.90
2022-12-28T00:09:46.836Z,74.36
2022-12-28T00:12:15.341Z,74.11
2022-12-28T00:14:43.756Z,74.23
2022-12-28T00:17:14.692Z,74.33
2022-12-28T00:19:44.556Z,74.25
2022-12-28T00:22:12.928Z,73.90
2022-12-28T00:24:41.413Z,73.63
2022-12-28T00:27:10.107Z,73.66
2022-12-28T00:29:38.678Z,74.28
2022-12-28T00:32:07.498Z,74.03
2022-12-28T00:34:35.996Z,74.05
2022-12-28T00:37:11.986Z,74.12
2022-12-28T00:39:43.204Z,74.06
2022-12-28T00:42:12.239Z,74.10
2022-12-28T00:44:41.461Z,74.27
2022-12-28T00:47:09.862Z,74.55
2022-12-28T00:49:38.316Z,74.58
2022-12-28T00:52:08.327Z,74.21
2022-12-28T00:54:36.776Z,74.66
2022-12-28T00:57:05.424Z,74.68
2022-12-28T00:59:33.838Z,74.25
2022-12-28T01:02:02.297Z,74.71
2022-12-28T01:04:30.745Z,74.56
2022-12-28T01:06:59.268Z,74.58
2022-12-28T01:09:29.112Z,74.07
2022-12-28T01:11:57.663Z,74.20
2022-12-28T01:14:26.121Z,74.36
2022-12-28T01:16:54.664Z,73.99
2022-12-28T01:19:25.307Z,74.78
2022-12-28T01:21:54.065Z,74.50
2022-12-28T01:24:22.916Z,74.55
2022-12-28T01:26:52.742Z,74.33
2022-12-28T01:29:21.125Z,75.02
2022-12-28T01:31:49.534Z,75.19
2022-12-28T01:34:17.958Z,75.33
2022-12-28T01:36:46.445Z,74.61
2022-12-28T01:39:15.578Z,74.60
2022-12-28T01:41:44.359Z,75.47
2022-12-28T01:44:48.735Z,74.68
2022-12-28T01:47:23.232Z,75.00
2022-12-28T01:49:59.820Z,75.40
2022-12-28T01:52:34.787Z,75.24
2022-12-28T01:55:10.210Z,74.82
2022-12-28T01:57:44.591Z,74.37
2022-12-28T02:00:16.996Z,75.23
2022-12-28T02:02:51.606Z,74.55
2022-12-28T02:05:21.310Z,75.28
2022-12-28T02:07:56.817Z,75.26
2022-12-28T02:10:44.264Z,74.57
2022-12-28T02:13:16.752Z,75.25
2022-12-28T02:15:48.075Z,75.09
2022-12-28T02:18:18.613Z,75.01
2022-12-28T02:21:18.177Z,74.92
2022-12-28T02:24:39.381Z,74.75
2022-12-28T02:27:21.819Z,74.49
2022-12-28T02:30:02.928Z,75.36
2022-12-28T02:32:53.993Z,75.21
2022-12-28T02:35:34.068Z,75.40
2022-12-28T02:38:09.028Z,75.34
2022-12-28T02:40:44.848Z,75.04
2022-12-28T02:43:14.742Z,75.44
2022-12-28T02:46:04.049Z,74.79
2022-12-28T02:48:59.183Z,75.70
2022-12-28T02:52:02.312Z,75.48
2022-12-28T02:55:19.613Z,75.39
2022-12-28T02:58:16.996Z,74.82
2022-12-28T03:01:04.224Z,74.80
2022-12-28T03:03:40.520Z,75.35
2022-12-28T03:06:35.634Z,75.54
2022-12-28T03:09:16.589Z,76.09
2022-12-28T03:11:52.774Z,75.35
2022-12-28T03:14:28.947Z,76.17
2022-12-28T03:17:20.163Z,76.42
2022-12-28T03:20:12.636Z,76.21
2022-12-28T03:23:00.874Z,76.29
2022-12-28T03:25:51.552Z,76.32
2022-12-28T03:28:42.486Z,76.04
2022-12-28T03:31:16.787Z,76.92
2022-12-28T03:33:50.141Z,76.50
2022-12-28T03:36:29.392Z,77.47
2022-12-28T03:39:11.199Z,77.39
2022-12-28T03:41:45.082Z,77.59
2022-12-28T03:44:22.268Z,77.43
2022-12-28T03:46:57.780Z,77.53
2022-12-28T03:49:29.046Z,76.73
2022-12-28T03:51:58.308Z,76.94
2022-12-28T03:54:27.008Z,76.84
2022-12-28T03:56:55.439Z,77.56
2022-12-28T03:59:23.886Z,77.13
2022-12-28T04:01:52.318Z,77.03
2022-12-28T04:04:20.774Z,77.55
2022-12-28T04:06:50.615Z,77.32
2022-12-28T04:09:18.997Z,76.90
2022-12-28T04:11:47.362Z,77.24
2022-12-28T04:14:15.683Z,77.21
2022-12-28T04:16:44.421Z,76.62
2022-12-28T04:19:12.797Z,77.46
2022-12-28T04:21:41.200Z,76.97
2022-12-28T04:24:10.914Z,77.06
2022-12-28T04:26:39.294Z,76.62
2022-12-28T04:29:07.657Z,77.08
2022-12-28T04:31:36.024Z,76.98
2022-12-28T04:34:04.571Z,76.94
2022-12-28T04:36:33.204Z,77.53
2022-12-28T04:39:01.834Z,77.90
2022-12-28T04:41:31.536Z,77.70
2022-12-28T04:44:00.112Z,77.81
2022-12-28T04:46:28.504Z,77.32
2022-12-28T04:48:56.926Z,77.60
2022-12-28T04:51:28.018Z,77.97
2022-12-28T04:53:57.763Z,78.44
2022-12-28T04:56:28.309Z,78.57
2022-12-28T04:58:59.961Z,78.36
2022-12-28T05:01:28.536Z,78.66
2022-12-28T05:03:59.653Z,78.69
2022-12-28T05:06:29.499Z,78.73
2022-12-28T05:08:58.706Z,78.79
2022-12-28T05:11:29.467Z,78.76
2022-12-28T05:13:59.907Z,79.23
2022-12-28T05:16:30.810Z,79.13
2022-12-28T05:18:59.551Z,79.43
2022-12-28T05:21:29.860Z,78.81
2022-12-28T05:23:59.366Z,79.03
2022-12-28T05:26:30.489Z,78.77
2022-12-28T05:29:00.793Z,79.12
2022-12-28T05:31:29.625Z,79.41
2022-12-28T05:33:58.135Z,79.30
2022-12-28T05:36:28.499Z,79.19
2022-12-28T05:38:57.868Z,79.95
2022-12-28T05:41:29.192Z,79.92
2022-12-28T05:44:00.641Z,79.45
2022-12-28T05:46:31.501Z,78.97
2022-12-28T05:49:00.585Z,79.57
2022-12-28T05:51:31.791Z,79.47
2022-12-28T05:54:01.590Z,79.74
2022-12-28T05:56:32.489Z,79.46
2022-12-28T05:59:04.352Z,79.50
2022-12-28T06:01:36.031Z,80.13
2022-12-28T06:04:08.229Z,79.63
2022-12-28T06:06:37.053Z,79.57
2022-12-28T06:09:05.968Z,79.40
2022-12-28T06:11:34.652Z,79.69
2022-12-28T06:14:05.967Z,79.52
2022-12-28T06:16:38.759Z,80.45
2022-12-28T06:19:09.532Z,79.85
2022-12-28T06:21:40.636Z,79.53
2022-12-28T06:24:10.892Z,79.81
2022-12-28T06:26:41.949Z,79.89
2022-12-28T06:29:12.219Z,80.44
2022-12-28T06:31:45.132Z,80.20
2022-12-28T06:34:13.595Z,80.49
2022-12-28T06:36:43.981Z,80.67
2022-12-28T06:39:15.409Z,80.41
2022-12-28T06:41:44.098Z,79.94
2022-12-28T06:44:15.478Z,79.99
2022-12-28T06:46:44.136Z,80.54
2022-12-28T06:49:12.619Z,80.45
2022-12-28T06:51:42.132Z,79.90
2022-12-28T06:54:11.973Z,80.28
2022-12-28T06:56:40.479Z,79.98
2022-12-28T06:59:08.930Z,79.82
2022-12-28T07:01:40.470Z,79.80
2022-12-28T07:04:11.139Z,79.90
2022-12-28T07:06:43.028Z,80.04
2022-12-28T07:09:14.677Z,79.56
2022-12-28T07:11:43.502Z,79.98
2022-12-28T07:14:12.336Z,79.41
2022-12-28T07:16:42.043Z,79.50
2022-12-28T07:19:10.485Z,79.38
2022-12-28T07:21:41.610Z,79.37
2022-12-28T07:24:11.065Z,79.79
2022-12-28T07:26:39.981Z,79.30
2022-12-28T07:29:09.920Z,79.34
2022-12-28T07:31:45.720Z,79.59
2022-12-28T07:34:16.285Z,78.65
2022-12-28T07:36:45.409Z,78.67
2022-12-28T07:39:14.138Z,79.30
2022-12-28T07:41:42.674Z,78.47
2022-12-28T07:44:11.217Z,77.61
2022-12-28T07:46:41.472Z,77.32
2022-12-28T07:49:10.268Z,76.89
2022-12-28T07:51:40.631Z,77.46
2022-12-28T07:54:09.297Z,76.12
2022-12-28T07:59:07.459Z,75.94
2022-12-28T08:01:37.562Z,76.47
2022-12-28T08:04:10.746Z,75.92
2022-12-28T08:06:41.192Z,75.68
2022-12-28T08:09:12.163Z,76.10
2022-12-28T08:11:42.413Z,75.59
2022-12-28T08:14:12.611Z,75.03
2022-12-28T08:16:44.675Z,75.08
2022-12-28T08:19:14.500Z,75.04
2022-12-28T08:21:45.991Z,74.08
2022-12-28T08:24:19.402Z,73.78
2022-12-28T08:26:49.619Z,73.55
2022-12-28T08:29:21.527Z,73.59
2022-12-28T08:31:50.605Z,72.88
2022-12-28T08:34:26.934Z,71.97
2022-12-28T08:36:56.033Z,72.60
2022-12-28T08:39:24.611Z,73.01
2022-12-28T08:41:53.019Z,72.29
2022-12-28T08:44:21.493Z,70.66
2022-12-28T08:46:50.061Z,70.60
2022-12-28T08:49:19.936Z,71.06
2022-12-28T08:51:48.471Z,70.66
2022-12-28T08:54:16.832Z,70.62
2022-12-28T08:56:46.923Z,71.03
2022-12-28T08:59:18.182Z,71.17
2022-12-28T09:01:48.510Z,71.78
2022-12-28T09:04:21.982Z,69.97
2022-12-28T09:06:51.669Z,69.71
2022-12-28T09:09:22.154Z,66.45
2022-12-28T09:11:51.348Z,65.46
2022-12-28T09:14:23.790Z,64.17
2022-12-28T09:16:53.583Z,62.85
2022-12-28T09:19:24.479Z,61.62
2022-12-28T09:21:55.420Z,59.08
2022-12-28T09:24:24.492Z,58.42
2022-12-28T09:26:54.764Z,59.08
2022-12-28T09:29:23.391Z,60.52
2022-12-28T09:31:51.975Z,61.13
2022-12-28T09:34:35.394Z,60.87
2022-12-28T09:37:07.764Z,61.76
2022-12-28T09:39:36.162Z,62.49
2022-12-28T09:42:13.634Z,62.07
2022-12-28T09:45:00.627Z,61.17
2022-12-28T09:47:44.594Z,60.47
2022-12-28T09:50:31.169Z,60.47
2022-12-28T09:53:20.899Z,58.46
2022-12-28T09:56:03.468Z,59.02
2022-12-28T09:58:35.172Z,58.21
2022-12-28T10:01:05.464Z,58.46
2022-12-28T10:03:38.793Z,58.27
2022-12-28T10:06:13.983Z,57.60
2022-12-28T10:08:48.050Z,58.07
2022-12-28T10:11:22.083Z,58.01
2022-12-28T10:13:56.920Z,57.15
2022-12-28T10:16:28.236Z,56.61
2022-12-28T10:18:57.246Z,57.86
2022-12-28T10:21:32.764Z,57.52
2022-12-28T10:26:58.591Z,55.86
2022-12-28T10:29:28.264Z,55.30
2022-12-28T10:32:03.077Z,54.30
2022-12-28T10:34:34.233Z,53.48
2022-12-28T10:37:14.176Z,53.66
2022-12-28T10:39:53.137Z,53.95
2022-12-28T10:42:27.160Z,54.37
2022-12-28T10:45:04.145Z,54.79
2022-12-28T10:47:37.167Z,55.42
2022-12-28T10:50:36.138Z,55.84
2022-12-28T10:52:59.579Z,56.46
2022-12-28T10:55:32.011Z,57.27
2022-12-28T10:58:30.362Z,58.37
2022-12-28T11:01:04.132Z,58.42
2022-12-28T11:03:35.920Z,59.53
2022-12-28T11:06:18.967Z,59.92
2022-12-28T11:09:16.867Z,59.86
2022-12-28T11:11:48.782Z,60.18
2022-12-28T11:14:31.600Z,60.43
2022-12-28T11:17:10.333Z,60.68
2022-12-28T11:19:38.852Z,60.91
2022-12-28T11:22:10.724Z,61.88
2022-12-28T11:24:40.536Z,60.95
2022-12-28T11:27:14.670Z,61.25
2022-12-28T11:29:48.889Z,61.43
2022-12-28T11:32:24.201Z,61.68
2022-12-28T11:34:54.553Z,61.95
2022-12-28T11:37:23.211Z,62.27
2022-12-28T11:39:54.396Z,62.95
2022-12-28T11:42:56.351Z,62.95
2022-12-28T11:45:54.257Z,63.14
2022-12-28T11:48:57.565Z,62.93
2022-12-28T11:51:28.224Z,63.01
2022-12-28T11:54:02.561Z,62.85
2022-12-28T11:56:59.681Z,63.28
2022-12-28T11:59:31.943Z,62.59
2022-12-28T12:02:02.102Z,62.24
2022-12-28T12:04:37.866Z,62.52
2022-12-28T12:07:49.224Z,62.82
2022-12-28T12:10:36.852Z,62.61
2022-12-28T12:13:44.725Z,62.17
2022-12-28T12:16:28.059Z,62.27
2022-12-28T12:19:00.053Z,63.18
2022-12-28T12:21:37.608Z,62.69
2022-12-28T12:24:33.693Z,62.79
2022-12-28T12:27:13.745Z,62.91
2022-12-28T12:29:45.795Z,63.19
2022-12-28T12:32:22.798Z,62.48
2022-12-28T12:34:55.394Z,62.94
2022-12-28T12:37:47.715Z,63.25
2022-12-28T12:41:09.676Z,62.99
2022-12-28T12:43:52.951Z,63.02
2022-12-28T12:47:05.272Z,62.96
2022-12-28T12:50:18.065Z,63.49
2022-12-28T12:53:02.512Z,63.39
2022-12-28T12:55:52.504Z,63.63
2022-12-28T12:58:27.741Z,63.84
2022-12-28T13:01:28.014Z,64.55
2022-12-28T13:04:00.264Z,64.51
2022-12-28T13:06:32.169Z,64.44
2022-12-28T13:09:06.020Z,64.86
2022-12-28T13:11:38.741Z,64.92
2022-12-28T13:14:07.651Z,64.93
2022-12-28T13:16:36.038Z,65.30
2022-12-28T13:19:08.269Z,65.65
2022-12-28T13:21:45.150Z,65.21
2022-12-28T13:24:23.415Z,65.15
2022-12-28T13:26:52.423Z,65.51
2022-12-28T13:29:23.815Z,65.30
2022-12-28T13:31:52.931Z,65.47
2022-12-28T13:34:25.211Z,65.19
2022-12-28T13:36:58.472Z,64.69
2022-12-28T13:39:28.127Z,65.21
2022-12-28T13:41:59.963Z,64.74
2022-12-28T13:44:43.347Z,65.08
2022-12-28T13:47:23.948Z,64.63
2022-12-28T13:49:58.962Z,64.75
2022-12-28T13:52:35.505Z,65.34
2022-12-28T13:55:08.909Z,65.33
2022-12-28T13:57:49.330Z,65.43
2022-12-28T14:00:21.545Z,65.68
2022-12-28T14:02:53.245Z,65.48
2022-12-28T14:05:26.229Z,65.39
2022-12-28T14:07:59.137Z,65.02
2022-12-28T14:10:28.625Z,65.15
2022-12-28T14:12:57.949Z,65.23
2022-12-28T14:15:27.495Z,65.28
2022-12-28T14:17:56.621Z,65.12
2022-12-28T14:20:25.200Z,65.30
2022-12-28T14:22:54.927Z,65.67
2022-12-28T14:25:25.279Z,65.85
2022-12-28T14:27:59.778Z,65.58
2022-12-28T14:30:31.757Z,65.88
2022-12-28T14:33:13.148Z,65.54
2022-12-28T14:35:50.175Z,65.34
2022-12-28T14:38:23.922Z,65.82
2022-12-28T14:40:57.932Z,65.43
2022-12-28T14:43:29.682Z,65.21
2022-12-28T14:46:06.831Z,65.44
2022-12-28T14:48:47.938Z,65.53
2022-12-28T14:51:30.716Z,65.83
2022-12-28T14:54:23.047Z,65.67
2022-12-28T14:56:57.157Z,65.47
2022-12-28T14:59:29.790Z,65.71
2022-12-28T15:01:58.672Z,65.72
2022-12-28T15:04:36.750Z,65.81
2022-12-28T15:07:06.450Z,65.81
2022-12-28T15:09:37.026Z,65.39
2022-12-28T15:12:14.148Z,65.68
2022-12-28T15:14:44.205Z,65.04
2022-12-28T15:17:13.314Z,65.13
2022-12-28T15:19:44.933Z,65.70
2022-12-28T15:22:14.223Z,65.17
2022-12-28T15:24:45.558Z,65.11
2022-12-28T15:27:14.176Z,65.84
2022-12-28T15:32:31.097Z,65.30
2022-12-28T15:34:59.547Z,65.32
2022-12-28T15:37:28.134Z,65.64
2022-12-28T15:39:57.928Z,65.07
2022-12-28T15:42:26.331Z,65.45
2022-12-28T15:44:54.855Z,65.43
2022-12-28T15:47:23.346Z,65.68
2022-12-28T15:49:51.941Z,65.82
2022-12-28T15:52:20.482Z,65.45
2022-12-28T15:54:49.102Z,66.07
2022-12-28T15:57:18.930Z,65.77
2022-12-28T15:59:48.085Z,66.04
2022-12-28T16:02:17.537Z,65.73
2022-12-28T16:04:46.378Z,65.80
2022-12-28T16:07:15.083Z,65.85
2022-12-28T16:09:43.570Z,65.48
2022-12-28T16:12:17.373Z,65.47
2022-12-28T16:14:48.530Z,65.64
2022-12-28T16:17:17.068Z,65.71
2022-12-28T16:19:45.526Z,66.50
2022-12-28T16:22:14.033Z,66.23
2022-12-28T16:24:42.799Z,65.82
2022-12-28T16:27:11.604Z,65.94
2022-12-28T16:29:39.975Z,66.43
2022-12-28T16:32:09.870Z,65.98
2022-12-28T16:34:38.638Z,66.09
2022-12-28T16:37:07.143Z,66.33
2022-12-28T16:39:35.648Z,66.46
2022-12-28T16:42:06.725Z,66.13
2022-12-28T16:44:37.221Z,66.31
2022-12-28T16:47:06.764Z,66.58
2022-12-28T16:49:41.235Z,66.18
2022-12-28T16:52:09.674Z,66.15
2022-12-28T16:54:38.381Z,65.61
2022-12-28T16:57:07.028Z,65.78
2022-12-28T16:59:35.449Z,65.83
2022-12-28T17:02:05.510Z,66.06
2022-12-28T17:04:35.550Z,65.41
2022-12-28T17:07:03.945Z,65.64
2022-12-28T17:09:35.341Z,65.26
2022-12-28T17:12:03.690Z,65.59
2022-12-28T17:14:39.234Z,65.34
2022-12-28T17:17:08.510Z,65.62
2022-12-28T17:19:38.780Z,65.42
2022-12-28T17:22:07.400Z,65.35
2022-12-28T17:24:35.929Z,65.37
2022-12-28T17:27:08.499Z,64.91
2022-12-28T17:29:39.611Z,65.38
2022-12-28T17:32:08.990Z,65.13
2022-12-28T17:34:39.150Z,64.97
2022-12-28T17:37:07.621Z,65.14
2022-12-28T17:39:40.292Z,65.34
2022-12-28T17:42:10.264Z,65.11
2022-12-28T17:44:38.831Z,65.13
2022-12-28T17:47:07.350Z,64.96
2022-12-28T17:49:36.006Z,64.75
2022-12-28T17:52:06.138Z,64.49
2022-12-28T17:54:35.232Z,64.48
2022-12-28T17:57:03.668Z,64.12
2022-12-28T17:59:32.063Z,63.94
2022-12-28T18:02:01.825Z,63.75
2022-12-28T18:04:30.668Z,64.00
2022-12-28T18:06:59.071Z,63.97
2022-12-28T18:09:29.081Z,64.40
2022-12-28T18:11:57.813Z,63.90
2022-12-28T18:14:27.699Z,63.75
2022-12-28T18:16:56.849Z,63.50
2022-12-28T18:19:25.361Z,63.67
2022-12-28T18:21:53.810Z,63.43
2022-12-28T18:24:22.621Z,63.60
2022-12-28T18:26:52.487Z,63.69
2022-12-28T18:29:20.924Z,63.28
2022-12-28T18:31:49.501Z,63.66
2022-12-28T18:34:18.049Z,63.62
2022-12-28T18:36:46.536Z,63.60
2022-12-28T18:39:15.042Z,63.48
2022-12-28T18:41:43.426Z,63.72
2022-12-28T18:44:13.218Z,63.46
2022-12-28T18:46:41.681Z,63.39
2022-12-28T18:49:10.360Z,63.05
2022-12-28T18:51:38.852Z,63.52
2022-12-28T18:54:07.354Z,63.65
2022-12-28T18:56:35.809Z,63.33
2022-12-28T18:59:05.061Z,64.10
2022-12-28T19:04:25.479Z,63.62
2022-12-28T19:06:54.060Z,63.70
2022-12-28T19:09:23.533Z,63.55
2022-12-28T19:11:52.875Z,63.86
2022-12-28T19:14:21.313Z,63.89
2022-12-28T19:16:50.966Z,63.56
2022-12-28T19:19:20.535Z,64.15
2022-12-28T19:21:52.303Z,64.08
2022-12-28T19:24:23.645Z,64.12
2022-12-28T19:26:53.861Z,63.82
2022-12-28T19:29:22.353Z,64.15
2022-12-28T19:31:52.572Z,64.18
2022-12-28T19:34:21.007Z,64.13
2022-12-28T19:36:49.400Z,64.11
2022-12-28T19:39:17.871Z,64.17
2022-12-28T19:41:46.291Z,64.26
2022-12-28T19:44:16.808Z,64.47
2022-12-28T19:46:47.451Z,64.15
2022-12-28T19:49:17.385Z,64.54
2022-12-28T19:51:45.728Z,64.13
2022-12-28T19:54:14.362Z,64.14
2022-12-28T19:56:42.894Z,64.64
2022-12-28T19:59:11.272Z,64.47
2022-12-28T20:01:40.083Z,64.21
2022-12-28T20:04:16.029Z,64.43
2022-12-28T20:06:46.342Z,64.18
2022-12-28T20:09:15.878Z,63.92
2022-12-28T20:11:45.732Z,64.60
2022-12-28T20:14:21.649Z,64.34
2022-12-28T20:16:53.428Z,64.26
2022-12-28T20:19:21.851Z,64.74
2022-12-28T20:21:51.710Z,65.07
2022-12-28T20:24:21.798Z,64.70
2022-12-28T20:26:50.323Z,65.36
2022-12-28T20:29:18.778Z,64.85
2022-12-28T20:31:47.211Z,65.37
2022-12-28T20:34:15.739Z,64.80
2022-12-28T20:36:44.345Z,65.20
2022-12-28T20:39:14.210Z,65.46
2022-12-28T20:41:59.895Z,65.55
2022-12-28T20:44:31.389Z,65.41
2022-12-28T20:47:00.511Z,65.36
2022-12-28T20:49:31.702Z,65.80
2022-12-28T20:52:00.168Z,65.78
2022-12-28T20:54:30.237Z,65.76
2022-12-28T20:56:58.697Z,65.50
2022-12-28T20:59:27.451Z,65.90
2022-12-28T21:01:56.263Z,65.82
2022-12-28T21:04:25.882Z,66.13
2022-12-28T21:06:55.256Z,66.13
2022-12-28T21:09:23.935Z,66.20
2022-12-28T21:11:53.926Z,65.97
2022-12-28T21:14:22.408Z,66.27
2022-12-28T21:16:51.039Z,65.73
2022-12-28T21:19:19.520Z,65.99
2022-12-28T21:21:49.638Z,65.84
2022-12-28T21:24:18.057Z,65.80
2022-12-28T21:26:46.543Z,66.09
2022-12-28T21:29:22.024Z,66.00
2022-12-28T21:31:53.998Z,66.12
2022-12-28T21:34:22.685Z,65.67
2022-12-28T21:36:51.058Z,66.29
2022-12-28T21:39:19.813Z,66.50
2022-12-28T21:41:51.056Z,65.81
2022-12-28T21:44:23.493Z,65.65
2022-12-28T21:46:53.945Z,66.18
2022-12-28T21:49:22.828Z,65.71
2022-12-28T21:51:51.818Z,65.53
2022-12-28T21:54:22.323Z,65.82
2022-12-28T21:56:53.186Z,65.74
2022-12-28T21:59:25.083Z,65.98
2022-12-28T22:02:12.460Z,65.53
2022-12-28T22:05:13.187Z,65.88
2022-12-28T22:07:41.551Z,66.07
2022-12-28T22:10:27.656Z,65.29
2022-12-28T22:12:56.032Z,65.26
2022-12-28T22:15:45.173Z,65.63
2022-12-28T22:21:09.649Z,65.53
2022-12-28T22:23:38.027Z,65.14
2022-12-28T22:26:06.917Z,65.32
2022-12-28T22:28:35.489Z,65.16
2022-12-28T22:31:07.977Z,65.12
2022-12-28T22:33:36.924Z,65.35
2022-12-28T22:36:17.737Z,65.38
2022-12-28T22:38:46.622Z,65.06
2022-12-28T22:41:15.413Z,65.48
2022-12-28T22:43:43.823Z,64.92
2022-12-28T22:46:13.807Z,65.11
2022-12-28T22:48:42.290Z,64.95
2022-12-28T22:51:14.387Z,65.03
2022-12-28T22:53:43.106Z,65.44
2022-12-28T22:56:15.931Z,65.42
2022-12-28T22:58:44.260Z,65.63
2022-12-28T23:01:17.189Z,65.41
2022-12-28T23:03:48.347Z,65.25
2022-12-28T23:06:20.265Z,65.45
2022-12-28T23:08:49.099Z,65.48
2022-12-28T23:11:35.823Z,65.41
2022-12-28T23:14:24.576Z,65.10
2022-12-28T23:16:55.057Z,65.35
2022-12-28T23:19:41.625Z,65.12
2022-12-28T23:22:31.477Z,64.87
2022-12-28T23:25:22.699Z,65.25
2022-12-28T23:27:51.591Z,65.07
2022-12-28T23:30:22.669Z,65.36
2022-12-28T23:32:53.163Z,64.81
2022-12-28T23:35:23.973Z,65.38
2022-12-28T23:37:52.745Z,65.18
2022-12-28T23:40:23.628Z,64.98
2022-12-28T23:42:54.087Z,65.02
2022-12-28T23:45:23.508Z,65.12
2022-12-28T23:47:54.433Z,65.17
2022-12-28T23:50:23.094Z,64.95
2022-12-28T23:52:51.563Z,65.31
2022-12-28T23:55:19.983Z,65.15
2022-12-28T23:57:48.373Z,64.79
